sensor_id;sensor_type;location;lat;lon;timestamp;pressure;altitude;pressure_sealevel;temperature;humidity
77106;BME280;66057;54.718;18.426;2024-01-07T00:06:03;47632.50;;;-143.26;88.67
77106;BME280;66057;54.718;18.426;2024-01-07T00:08:50;47622.75;;;-143.26;89.09
77106;BME280;66057;54.718;18.426;2024-01-07T00:14:19;47655.91;;;-143.26;88.41
77106;BME280;66057;54.718;18.426;2024-01-07T00:17:42;47657.88;;;-143.26;88.44
77106;BME280;66057;54.718;18.426;2024-01-07T00:20:28;47632.50;;;-143.26;88.84
77106;BME280;66057;54.718;18.426;2024-01-07T00:23:07;47618.84;;;-143.26;88.28
77106;BME280;66057;54.718;18.426;2024-01-07T00:25:49;47646.16;;;-143.26;88.67
77106;BME280;66057;54.718;18.426;2024-01-07T00:28:18;47622.75;;;-143.26;88.14
77106;BME280;66057;54.718;18.426;2024-01-07T00:31:06;47640.31;;;-143.26;87.38
77106;BME280;66057;54.718;18.426;2024-01-07T00:33:40;47657.88;;;-143.26;88.20
77106;BME280;66057;54.718;18.426;2024-01-07T00:36:08;47640.31;;;-143.26;87.82
77106;BME280;66057;54.718;18.426;2024-01-07T00:38:38;47642.25;;;-143.26;87.83
77106;BME280;66057;54.718;18.426;2024-01-07T00:41:04;47648.09;;;-143.26;88.17
77106;BME280;66057;54.718;18.426;2024-01-07T00:43:35;47624.69;;;-143.26;87.38
77106;BME280;66057;54.718;18.426;2024-01-07T00:46:02;47648.09;;;-143.26;86.38
77106;BME280;66057;54.718;18.426;2024-01-07T00:48:32;47638.34;;;-143.26;87.47
77106;BME280;66057;54.718;18.426;2024-01-07T00:51:01;47632.50;;;-143.26;88.26
77106;BME280;66057;54.718;18.426;2024-01-07T00:53:31;47618.84;;;-143.26;88.73
77106;BME280;66057;54.718;18.426;2024-01-07T00:55:57;47626.66;;;-143.26;87.96
77106;BME280;66057;54.718;18.426;2024-01-07T00:58:25;47640.31;;;-143.26;88.78
77106;BME280;66057;54.718;18.426;2024-01-07T01:00:55;47616.91;;;-143.26;88.13
77106;BME280;66057;54.718;18.426;2024-01-07T01:03:24;47646.16;;;-143.26;87.79
77106;BME280;66057;54.718;18.426;2024-01-07T01:05:58;47646.16;;;-143.26;87.17
77106;BME280;66057;54.718;18.426;2024-01-07T01:08:39;47644.22;;;-143.26;88.68
77106;BME280;66057;54.718;18.426;2024-01-07T01:11:21;47624.69;;;-143.26;88.57
77106;BME280;66057;54.718;18.426;2024-01-07T01:13:57;47634.44;;;-143.26;87.58
77106;BME280;66057;54.718;18.426;2024-01-07T01:16:33;47618.84;;;-143.26;87.23
77106;BME280;66057;54.718;18.426;2024-01-07T01:19:07;47650.06;;;-143.26;88.14
77106;BME280;66057;54.718;18.426;2024-01-07T01:22:01;47630.56;;;-143.26;88.00
77106;BME280;66057;54.718;18.426;2024-01-07T01:24:40;47646.16;;;-143.26;88.04
77106;BME280;66057;54.718;18.426;2024-01-07T01:27:33;47638.34;;;-143.26;87.43
77106;BME280;66057;54.718;18.426;2024-01-07T01:33:16;47644.22;;;-143.26;87.98
77106;BME280;66057;54.718;18.426;2024-01-07T01:35:49;47642.25;;;-143.26;87.45
77106;BME280;66057;54.718;18.426;2024-01-07T01:38:15;47626.66;;;-143.26;87.64
77106;BME280;66057;54.718;18.426;2024-01-07T01:40:41;47650.06;;;-143.26;86.55
77106;BME280;66057;54.718;18.426;2024-01-07T01:43:11;47611.03;;;-143.26;86.40
77106;BME280;66057;54.718;18.426;2024-01-07T01:45:37;47652.00;;;-143.26;87.04
77106;BME280;66057;54.718;18.426;2024-01-07T01:48:18;47663.72;;;-143.26;87.08
77106;BME280;66057;54.718;18.426;2024-01-07T01:50:46;47609.09;;;-143.26;87.58
77106;BME280;66057;54.718;18.426;2024-01-07T01:53:12;47642.25;;;-143.26;86.68
77106;BME280;66057;54.718;18.426;2024-01-07T01:55:40;47661.78;;;-143.26;87.20
77106;BME280;66057;54.718;18.426;2024-01-07T01:58:05;47653.97;;;-143.26;87.20
77106;BME280;66057;54.718;18.426;2024-01-07T02:00:34;47622.75;;;-143.26;85.71
77106;BME280;66057;54.718;18.426;2024-01-07T02:03:00;47614.94;;;-143.26;84.83
77106;BME280;66057;54.718;18.426;2024-01-07T02:05:27;47669.56;;;-143.26;85.42
77106;BME280;66057;54.718;18.426;2024-01-07T02:07:53;47638.34;;;-143.26;85.79
77106;BME280;66057;54.718;18.426;2024-01-07T02:10:22;47630.56;;;-143.26;85.71
77106;BME280;66057;54.718;18.426;2024-01-07T02:12:48;47636.41;;;-143.26;83.63
77106;BME280;66057;54.718;18.426;2024-01-07T02:15:15;47630.56;;;-143.26;82.92
77106;BME280;66057;54.718;18.426;2024-01-07T02:17:40;47616.91;;;-143.26;83.54
77106;BME280;66057;54.718;18.426;2024-01-07T02:20:07;47611.03;;;-143.26;83.23
77106;BME280;66057;54.718;18.426;2024-01-07T02:22:34;47603.25;;;-143.26;83.33
77106;BME280;66057;54.718;18.426;2024-01-07T02:25:00;47591.53;;;-143.26;83.24
77106;BME280;66057;54.718;18.426;2024-01-07T02:27:26;47611.03;;;-143.26;83.39
77106;BME280;66057;54.718;18.426;2024-01-07T02:29:52;47646.16;;;-143.26;83.75
77106;BME280;66057;54.718;18.426;2024-01-07T02:32:17;47626.66;;;-143.26;82.69
77106;BME280;66057;54.718;18.426;2024-01-07T02:34:43;47616.91;;;-143.26;82.53
77106;BME280;66057;54.718;18.426;2024-01-07T02:37:09;47624.69;;;-143.26;81.11
77106;BME280;66057;54.718;18.426;2024-01-07T02:39:35;47634.44;;;-143.26;81.35
77106;BME280;66057;54.718;18.426;2024-01-07T02:42:01;47628.59;;;-143.26;80.53
77106;BME280;66057;54.718;18.426;2024-01-07T02:44:27;47632.50;;;-143.26;80.26
77106;BME280;66057;54.718;18.426;2024-01-07T02:46:53;47622.75;;;-143.26;80.91
77106;BME280;66057;54.718;18.426;2024-01-07T02:49:19;47616.91;;;-143.26;80.84
77106;BME280;66057;54.718;18.426;2024-01-07T02:51:44;47669.56;;;-143.26;81.38
77106;BME280;66057;54.718;18.426;2024-01-07T02:54:15;47618.84;;;-143.26;81.21
77106;BME280;66057;54.718;18.426;2024-01-07T02:56:41;47652.00;;;-143.26;81.03
77106;BME280;66057;54.718;18.426;2024-01-07T02:59:07;47638.34;;;-143.26;81.40
77106;BME280;66057;54.718;18.426;2024-01-07T03:01:32;47634.44;;;-143.26;79.04
77106;BME280;66057;54.718;18.426;2024-01-07T03:04:10;47601.28;;;-143.26;79.15
77106;BME280;66057;54.718;18.426;2024-01-07T03:06:37;47626.66;;;-143.26;81.04
77106;BME280;66057;54.718;18.426;2024-01-07T03:09:04;47632.50;;;-143.26;80.79
77106;BME280;66057;54.718;18.426;2024-01-07T03:11:29;47591.53;;;-143.26;81.39
77106;BME280;66057;54.718;18.426;2024-01-07T03:13:56;47669.56;;;-143.26;82.00
77106;BME280;66057;54.718;18.426;2024-01-07T03:16:23;47657.88;;;-143.26;82.33
77106;BME280;66057;54.718;18.426;2024-01-07T03:18:49;47618.84;;;-143.26;83.14
77106;BME280;66057;54.718;18.426;2024-01-07T03:21:18;47669.56;;;-143.26;81.12
77106;BME280;66057;54.718;18.426;2024-01-07T03:23:47;47628.59;;;-143.26;80.91
77106;BME280;66057;54.718;18.426;2024-01-07T03:26:13;47626.66;;;-143.26;81.86
77106;BME280;66057;54.718;18.426;2024-01-07T03:28:39;47646.16;;;-143.26;82.80
77106;BME280;66057;54.718;18.426;2024-01-07T03:31:08;47599.34;;;-143.26;82.72
77106;BME280;66057;54.718;18.426;2024-01-07T03:33:34;47655.91;;;-143.26;81.75
77106;BME280;66057;54.718;18.426;2024-01-07T03:36:00;47638.34;;;-143.26;79.58
77106;BME280;66057;54.718;18.426;2024-01-07T03:38:26;47622.75;;;-143.26;81.88
77106;BME280;66057;54.718;18.426;2024-01-07T03:40:52;47644.22;;;-143.26;79.17
77106;BME280;66057;54.718;18.426;2024-01-07T03:43:17;47638.34;;;-143.26;78.09
77106;BME280;66057;54.718;18.426;2024-01-07T03:45:43;47630.56;;;-143.26;79.96
77106;BME280;66057;54.718;18.426;2024-01-07T03:48:09;47620.78;;;-143.26;79.88
77106;BME280;66057;54.718;18.426;2024-01-07T03:50:34;47657.88;;;-143.26;80.42
77106;BME280;66057;54.718;18.426;2024-01-07T03:53:01;47601.28;;;-143.26;79.14
77106;BME280;66057;54.718;18.426;2024-01-07T03:55:26;47593.47;;;-143.26;80.66
77106;BME280;66057;54.718;18.426;2024-01-07T03:57:52;47636.41;;;-143.26;81.86
77106;BME280;66057;54.718;18.426;2024-01-07T04:00:18;47630.56;;;-143.26;81.82
77106;BME280;66057;54.718;18.426;2024-01-07T04:02:44;47622.75;;;-143.26;80.44
77106;BME280;66057;54.718;18.426;2024-01-07T04:05:10;47638.34;;;-143.26;80.68
77106;BME280;66057;54.718;18.426;2024-01-07T04:07:36;47653.97;;;-143.26;77.86
77106;BME280;66057;54.718;18.426;2024-01-07T04:10:02;47624.69;;;-143.26;76.36
77106;BME280;66057;54.718;18.426;2024-01-07T04:12:28;47669.56;;;-143.26;76.06
77106;BME280;66057;54.718;18.426;2024-01-07T04:14:54;47630.56;;;-143.26;76.27
77106;BME280;66057;54.718;18.426;2024-01-07T04:17:19;47653.97;;;-143.26;74.72
77106;BME280;66057;54.718;18.426;2024-01-07T04:19:45;47618.84;;;-143.26;74.11
77106;BME280;66057;54.718;18.426;2024-01-07T04:22:11;47626.66;;;-143.26;73.83
77106;BME280;66057;54.718;18.426;2024-01-07T04:24:40;47609.09;;;-143.26;73.85
77106;BME280;66057;54.718;18.426;2024-01-07T04:27:07;47655.91;;;-143.26;72.42
77106;BME280;66057;54.718;18.426;2024-01-07T04:29:34;47618.84;;;-143.26;72.85
77106;BME280;66057;54.718;18.426;2024-01-07T04:32:00;47646.16;;;-143.26;73.99
77106;BME280;66057;54.718;18.426;2024-01-07T04:34:25;47640.31;;;-143.26;71.59
77106;BME280;66057;54.718;18.426;2024-01-07T04:36:51;47620.78;;;-143.26;71.75
77106;BME280;66057;54.718;18.426;2024-01-07T04:39:18;47630.56;;;-143.26;71.98
77106;BME280;66057;54.718;18.426;2024-01-07T04:41:48;47630.56;;;-143.26;69.38
77106;BME280;66057;54.718;18.426;2024-01-07T04:44:14;47653.97;;;-143.26;69.09
77106;BME280;66057;54.718;18.426;2024-01-07T04:46:40;47603.25;;;-143.26;70.20
77106;BME280;66057;54.718;18.426;2024-01-07T04:49:06;47626.66;;;-143.26;71.44
77106;BME280;66057;54.718;18.426;2024-01-07T04:51:33;47636.41;;;-143.26;70.98
77106;BME280;66057;54.718;18.426;2024-01-07T04:53:59;47638.34;;;-143.26;72.99
77106;BME280;66057;54.718;18.426;2024-01-07T04:56:25;47630.56;;;-143.26;73.12
77106;BME280;66057;54.718;18.426;2024-01-07T04:58:50;47648.09;;;-143.26;73.86
77106;BME280;66057;54.718;18.426;2024-01-07T05:01:16;47634.44;;;-143.26;71.41
77106;BME280;66057;54.718;18.426;2024-01-07T05:03:42;47634.44;;;-143.26;71.61
77106;BME280;66057;54.718;18.426;2024-01-07T05:06:11;47618.84;;;-143.26;71.84
77106;BME280;66057;54.718;18.426;2024-01-07T05:08:37;47638.34;;;-143.26;74.38
77106;BME280;66057;54.718;18.426;2024-01-07T05:11:04;47626.66;;;-143.26;74.57
77106;BME280;66057;54.718;18.426;2024-01-07T05:13:30;47614.94;;;-143.26;76.88
77106;BME280;66057;54.718;18.426;2024-01-07T05:15:56;47681.28;;;-143.26;77.47
77106;BME280;66057;54.718;18.426;2024-01-07T05:18:23;47591.53;;;-143.26;78.18
77106;BME280;66057;54.718;18.426;2024-01-07T05:20:52;47642.25;;;-143.26;76.95
77106;BME280;66057;54.718;18.426;2024-01-07T05:23:19;47607.13;;;-143.26;77.86
77106;BME280;66057;54.718;18.426;2024-01-07T05:25:47;47626.66;;;-143.26;76.73
77106;BME280;66057;54.718;18.426;2024-01-07T05:28:13;47655.91;;;-143.26;78.77
77106;BME280;66057;54.718;18.426;2024-01-07T05:30:40;47628.59;;;-143.26;80.05
77106;BME280;66057;54.718;18.426;2024-01-07T05:33:06;47642.25;;;-143.26;79.87
77106;BME280;66057;54.718;18.426;2024-01-07T05:35:32;47603.25;;;-143.26;81.14
77106;BME280;66057;54.718;18.426;2024-01-07T05:37:58;47626.66;;;-143.26;78.62
77106;BME280;66057;54.718;18.426;2024-01-07T05:40:26;47642.25;;;-143.26;81.49
77106;BME280;66057;54.718;18.426;2024-01-07T05:42:53;47605.19;;;-143.26;81.03
77106;BME280;66057;54.718;18.426;2024-01-07T05:45:19;47648.09;;;-143.26;82.48
77106;BME280;66057;54.718;18.426;2024-01-07T05:47:45;47652.00;;;-143.26;81.93
77106;BME280;66057;54.718;18.426;2024-01-07T05:50:11;47601.28;;;-143.26;82.61
77106;BME280;66057;54.718;18.426;2024-01-07T05:52:37;47605.19;;;-143.26;83.62
77106;BME280;66057;54.718;18.426;2024-01-07T05:55:03;47657.88;;;-143.26;79.04
77106;BME280;66057;54.718;18.426;2024-01-07T05:57:30;47632.50;;;-143.26;80.26
77106;BME280;66057;54.718;18.426;2024-01-07T05:59:56;47626.66;;;-143.26;80.30
77106;BME280;66057;54.718;18.426;2024-01-07T06:02:21;47638.34;;;-143.26;79.00
77106;BME280;66057;54.718;18.426;2024-01-07T06:04:50;47634.44;;;-143.26;80.20
77106;BME280;66057;54.718;18.426;2024-01-07T06:07:15;47663.72;;;-143.26;80.99
77106;BME280;66057;54.718;18.426;2024-01-07T06:09:41;47648.09;;;-143.26;78.56
77106;BME280;66057;54.718;18.426;2024-01-07T06:12:07;47622.75;;;-143.26;80.75
77106;BME280;66057;54.718;18.426;2024-01-07T06:14:35;47618.84;;;-143.26;81.32
77106;BME280;66057;54.718;18.426;2024-01-07T06:17:01;47628.59;;;-143.26;79.87
77106;BME280;66057;54.718;18.426;2024-01-07T06:19:30;47626.66;;;-143.26;83.87
77106;BME280;66057;54.718;18.426;2024-01-07T06:21:55;47587.63;;;-143.26;86.03
77106;BME280;66057;54.718;18.426;2024-01-07T06:24:21;47614.94;;;-143.26;85.66
77106;BME280;66057;54.718;18.426;2024-01-07T06:26:47;47622.75;;;-143.26;84.44
77106;BME280;66057;54.718;18.426;2024-01-07T06:29:13;47622.75;;;-143.26;84.23
77106;BME280;66057;54.718;18.426;2024-01-07T06:31:44;47646.16;;;-143.26;84.14
77106;BME280;66057;54.718;18.426;2024-01-07T06:34:14;47630.56;;;-143.26;85.28
77106;BME280;66057;54.718;18.426;2024-01-07T06:36:41;47665.66;;;-143.26;85.60
77106;BME280;66057;54.718;18.426;2024-01-07T06:39:07;47665.66;;;-143.26;83.67
77106;BME280;66057;54.718;18.426;2024-01-07T06:41:34;47618.84;;;-143.26;86.01
77106;BME280;66057;54.718;18.426;2024-01-07T06:44:01;47632.50;;;-143.26;86.27
77106;BME280;66057;54.718;18.426;2024-01-07T06:46:27;47620.78;;;-143.26;87.40
77106;BME280;66057;54.718;18.426;2024-01-07T06:48:52;47650.06;;;-143.26;87.14
77106;BME280;66057;54.718;18.426;2024-01-07T06:51:18;47622.75;;;-143.26;86.55
77106;BME280;66057;54.718;18.426;2024-01-07T06:53:45;47634.44;;;-143.26;86.94
77106;BME280;66057;54.718;18.426;2024-01-07T06:56:11;47589.59;;;-143.26;86.54
77106;BME280;66057;54.718;18.426;2024-01-07T06:58:37;47640.31;;;-143.26;86.14
77106;BME280;66057;54.718;18.426;2024-01-07T07:01:02;47642.25;;;-143.26;86.67
77106;BME280;66057;54.718;18.426;2024-01-07T07:03:28;47642.25;;;-143.26;86.04
77106;BME280;66057;54.718;18.426;2024-01-07T07:05:54;47644.22;;;-143.26;86.34
77106;BME280;66057;54.718;18.426;2024-01-07T07:08:20;47591.53;;;-143.26;86.70
77106;BME280;66057;54.718;18.426;2024-01-07T07:10:45;47614.94;;;-143.26;87.05
77106;BME280;66057;54.718;18.426;2024-01-07T07:13:12;47644.22;;;-143.26;86.51
77106;BME280;66057;54.718;18.426;2024-01-07T07:15:37;47632.50;;;-143.26;87.93
77106;BME280;66057;54.718;18.426;2024-01-07T07:18:04;47626.66;;;-143.26;87.45
77106;BME280;66057;54.718;18.426;2024-01-07T07:20:29;47638.34;;;-143.26;88.41
77106;BME280;66057;54.718;18.426;2024-01-07T07:22:55;47632.50;;;-143.26;87.99
77106;BME280;66057;54.718;18.426;2024-01-07T07:25:22;47622.75;;;-143.26;87.36
77106;BME280;66057;54.718;18.426;2024-01-07T07:27:48;47593.47;;;-143.26;86.75
77106;BME280;66057;54.718;18.426;2024-01-07T07:30:14;47636.41;;;-143.26;86.94
77106;BME280;66057;54.718;18.426;2024-01-07T07:32:40;47611.03;;;-143.26;87.99
77106;BME280;66057;54.718;18.426;2024-01-07T07:35:09;47630.56;;;-143.26;89.02
77106;BME280;66057;54.718;18.426;2024-01-07T07:37:35;47607.13;;;-143.26;87.86
77106;BME280;66057;54.718;18.426;2024-01-07T07:40:01;47622.75;;;-143.26;88.76
77106;BME280;66057;54.718;18.426;2024-01-07T07:42:28;47653.97;;;-143.26;88.82
77106;BME280;66057;54.718;18.426;2024-01-07T07:44:54;47605.19;;;-143.26;89.07
77106;BME280;66057;54.718;18.426;2024-01-07T07:47:20;47614.94;;;-143.26;88.51
77106;BME280;66057;54.718;18.426;2024-01-07T07:49:46;47636.41;;;-143.26;87.84
77106;BME280;66057;54.718;18.426;2024-01-07T07:52:12;47599.34;;;-143.26;89.54
77106;BME280;66057;54.718;18.426;2024-01-07T07:54:39;47599.34;;;-143.26;88.98
77106;BME280;66057;54.718;18.426;2024-01-07T07:57:05;47614.94;;;-143.26;89.51
77106;BME280;66057;54.718;18.426;2024-01-07T07:59:31;47595.44;;;-143.26;88.93
77106;BME280;66057;54.718;18.426;2024-01-07T08:01:57;47607.13;;;-143.26;89.45
77106;BME280;66057;54.718;18.426;2024-01-07T08:04:24;47628.59;;;-143.26;89.53
77106;BME280;66057;54.718;18.426;2024-01-07T08:06:52;47607.13;;;-143.26;88.88
77106;BME280;66057;54.718;18.426;2024-01-07T08:09:18;47632.50;;;-143.26;88.03
77106;BME280;66057;54.718;18.426;2024-01-07T08:11:44;47630.56;;;-143.26;88.35
77106;BME280;66057;54.718;18.426;2024-01-07T08:14:09;47626.66;;;-143.26;88.30
77106;BME280;66057;54.718;18.426;2024-01-07T08:16:35;47601.28;;;-143.26;88.24
77106;BME280;66057;54.718;18.426;2024-01-07T08:19:01;47618.84;;;-143.26;88.36
77106;BME280;66057;54.718;18.426;2024-01-07T08:21:26;47581.78;;;-143.26;88.19
77106;BME280;66057;54.718;18.426;2024-01-07T08:23:52;47646.16;;;-143.26;87.82
77106;BME280;66057;54.718;18.426;2024-01-07T08:26:19;47620.78;;;-143.26;88.54
77106;BME280;66057;54.718;18.426;2024-01-07T08:28:48;47646.16;;;-143.26;88.59
77106;BME280;66057;54.718;18.426;2024-01-07T08:31:14;47607.13;;;-143.26;88.84
77106;BME280;66057;54.718;18.426;2024-01-07T08:33:39;47599.34;;;-143.26;89.48
77106;BME280;66057;54.718;18.426;2024-01-07T08:36:05;47618.84;;;-143.26;87.98
77106;BME280;66057;54.718;18.426;2024-01-07T08:38:31;47587.63;;;-143.26;87.54
77106;BME280;66057;54.718;18.426;2024-01-07T08:40:57;47593.47;;;-143.26;88.11
77106;BME280;66057;54.718;18.426;2024-01-07T08:43:23;47634.44;;;-143.26;88.77
77106;BME280;66057;54.718;18.426;2024-01-07T08:45:50;47583.72;;;-143.26;88.61
77106;BME280;66057;54.718;18.426;2024-01-07T08:48:17;47616.91;;;-143.26;88.40
77106;BME280;66057;54.718;18.426;2024-01-07T08:50:44;47585.69;;;-143.26;88.84
77106;BME280;66057;54.718;18.426;2024-01-07T08:53:09;47595.44;;;-143.26;87.98
77106;BME280;66057;54.718;18.426;2024-01-07T08:55:35;47613.00;;;-143.26;88.31
77106;BME280;66057;54.718;18.426;2024-01-07T08:58:01;47620.78;;;-143.26;88.78
77106;BME280;66057;54.718;18.426;2024-01-07T09:00:30;47611.03;;;-143.26;88.01
77106;BME280;66057;54.718;18.426;2024-01-07T09:02:57;47620.78;;;-143.26;89.12
77106;BME280;66057;54.718;18.426;2024-01-07T09:05:23;47603.25;;;-143.26;88.16
77106;BME280;66057;54.718;18.426;2024-01-07T09:07:53;47614.94;;;-143.26;88.48
77106;BME280;66057;54.718;18.426;2024-01-07T09:10:19;47609.09;;;-143.26;88.37
77106;BME280;66057;54.718;18.426;2024-01-07T09:12:46;47605.19;;;-143.26;88.03
77106;BME280;66057;54.718;18.426;2024-01-07T09:15:12;47634.44;;;-143.26;88.02
77106;BME280;66057;54.718;18.426;2024-01-07T09:17:37;47626.66;;;-143.26;88.28
77106;BME280;66057;54.718;18.426;2024-01-07T09:20:05;47616.91;;;-143.26;88.71
77106;BME280;66057;54.718;18.426;2024-01-07T09:22:33;47614.94;;;-143.26;88.34
77106;BME280;66057;54.718;18.426;2024-01-07T09:25:04;47632.50;;;-143.26;88.04
77106;BME280;66057;54.718;18.426;2024-01-07T09:27:30;47587.63;;;-143.26;89.04
77106;BME280;66057;54.718;18.426;2024-01-07T09:29:56;47624.69;;;-143.26;88.00
77106;BME280;66057;54.718;18.426;2024-01-07T09:32:22;47611.03;;;-143.26;88.41
77106;BME280;66057;54.718;18.426;2024-01-07T09:34:47;47591.53;;;-143.26;87.94
77106;BME280;66057;54.718;18.426;2024-01-07T09:37:13;47611.03;;;-143.26;87.35
77106;BME280;66057;54.718;18.426;2024-01-07T09:39:40;47607.13;;;-143.26;88.08
77106;BME280;66057;54.718;18.426;2024-01-07T09:42:12;47628.59;;;-143.26;88.65
77106;BME280;66057;54.718;18.426;2024-01-07T09:44:38;47626.66;;;-143.26;88.91
77106;BME280;66057;54.718;18.426;2024-01-07T09:47:05;47618.84;;;-143.26;88.09
77106;BME280;66057;54.718;18.426;2024-01-07T09:49:31;47618.84;;;-143.26;88.16
77106;BME280;66057;54.718;18.426;2024-01-07T09:51:59;47640.31;;;-143.26;87.91
77106;BME280;66057;54.718;18.426;2024-01-07T09:54:29;47560.31;;;-143.26;88.44
77106;BME280;66057;54.718;18.426;2024-01-07T09:57:02;47624.69;;;-143.26;88.16
77106;BME280;66057;54.718;18.426;2024-01-07T09:59:29;47626.66;;;-143.26;87.53
77106;BME280;66057;54.718;18.426;2024-01-07T10:01:55;47630.56;;;-143.26;88.84
77106;BME280;66057;54.718;18.426;2024-01-07T10:04:23;47614.94;;;-143.26;87.82
77106;BME280;66057;54.718;18.426;2024-01-07T10:06:49;47609.09;;;-143.26;88.67
77106;BME280;66057;54.718;18.426;2024-01-07T10:09:16;47593.47;;;-143.26;88.86
77106;BME280;66057;54.718;18.426;2024-01-07T10:11:45;47587.63;;;-143.26;87.66
77106;BME280;66057;54.718;18.426;2024-01-07T10:14:11;47579.81;;;-143.26;88.35
77106;BME280;66057;54.718;18.426;2024-01-07T10:16:37;47591.53;;;-143.26;87.08
77106;BME280;66057;54.718;18.426;2024-01-07T10:19:04;47648.09;;;-143.26;87.66
77106;BME280;66057;54.718;18.426;2024-01-07T10:21:29;47650.06;;;-143.26;87.81
77106;BME280;66057;54.718;18.426;2024-01-07T10:24:10;47603.25;;;-143.26;87.92
77106;BME280;66057;54.718;18.426;2024-01-07T10:26:39;47589.59;;;-143.26;88.26
77106;BME280;66057;54.718;18.426;2024-01-07T10:29:11;47599.34;;;-143.26;88.84
77106;BME280;66057;54.718;18.426;2024-01-07T10:31:38;47620.78;;;-143.26;86.61
77106;BME280;66057;54.718;18.426;2024-01-07T10:34:07;47575.91;;;-143.26;87.42
77106;BME280;66057;54.718;18.426;2024-01-07T10:36:34;47587.63;;;-143.26;88.12
77106;BME280;66057;54.718;18.426;2024-01-07T10:39:00;47589.59;;;-143.26;87.24
77106;BME280;66057;54.718;18.426;2024-01-07T10:41:26;47630.56;;;-143.26;86.92
77106;BME280;66057;54.718;18.426;2024-01-07T10:43:53;47589.59;;;-143.26;87.52
77106;BME280;66057;54.718;18.426;2024-01-07T10:46:20;47577.88;;;-143.26;86.53
77106;BME280;66057;54.718;18.426;2024-01-07T10:48:59;47620.78;;;-143.26;87.17
77106;BME280;66057;54.718;18.426;2024-01-07T10:51:27;47616.91;;;-143.26;86.92
77106;BME280;66057;54.718;18.426;2024-01-07T10:53:58;47581.78;;;-143.26;87.12
77106;BME280;66057;54.718;18.426;2024-01-07T10:56:45;47603.25;;;-143.26;87.71
77106;BME280;66057;54.718;18.426;2024-01-07T10:59:12;47638.34;;;-143.26;88.08
77106;BME280;66057;54.718;18.426;2024-01-07T11:01:38;47603.25;;;-143.26;87.58
77106;BME280;66057;54.718;18.426;2024-01-07T11:04:23;47642.25;;;-143.26;86.69
77106;BME280;66057;54.718;18.426;2024-01-07T11:06:55;47628.59;;;-143.26;86.53
77106;BME280;66057;54.718;18.426;2024-01-07T11:09:35;47630.56;;;-143.26;86.90
77106;BME280;66057;54.718;18.426;2024-01-07T11:12:03;47620.78;;;-143.26;87.28
77106;BME280;66057;54.718;18.426;2024-01-07T11:14:41;47591.53;;;-143.26;87.27
77106;BME280;66057;54.718;18.426;2024-01-07T11:17:11;47599.34;;;-143.26;87.31
77106;BME280;66057;54.718;18.426;2024-01-07T11:19:49;47634.44;;;-143.26;87.08
77106;BME280;66057;54.718;18.426;2024-01-07T11:25:01;47577.88;;;-143.26;88.15
77106;BME280;66057;54.718;18.426;2024-01-07T11:27:32;47607.13;;;-143.26;87.20
77106;BME280;66057;54.718;18.426;2024-01-07T11:32:33;47618.84;;;-143.26;87.22
77106;BME280;66057;54.718;18.426;2024-01-07T11:35:04;47599.34;;;-143.26;86.92
77106;BME280;66057;54.718;18.426;2024-01-07T11:37:30;47618.84;;;-143.26;87.43
77106;BME280;66057;54.718;18.426;2024-01-07T11:39:57;47628.59;;;-143.26;87.21
77106;BME280;66057;54.718;18.426;2024-01-07T11:42:23;47603.25;;;-143.26;86.76
77106;BME280;66057;54.718;18.426;2024-01-07T11:44:54;47640.31;;;-143.26;86.32
77106;BME280;66057;54.718;18.426;2024-01-07T11:47:22;47620.78;;;-143.26;86.91
77106;BME280;66057;54.718;18.426;2024-01-07T11:49:48;47611.03;;;-143.26;87.48
77106;BME280;66057;54.718;18.426;2024-01-07T11:52:17;47599.34;;;-143.26;87.16
77106;BME280;66057;54.718;18.426;2024-01-07T11:54:43;47609.09;;;-143.26;86.42
77106;BME280;66057;54.718;18.426;2024-01-07T11:57:10;47650.06;;;-143.26;86.31
77106;BME280;66057;54.718;18.426;2024-01-07T11:59:36;47624.69;;;-143.26;86.77
77106;BME280;66057;54.718;18.426;2024-01-07T12:02:03;47634.44;;;-143.26;86.58
77106;BME280;66057;54.718;18.426;2024-01-07T12:04:33;47620.78;;;-143.26;86.50
77106;BME280;66057;54.718;18.426;2024-01-07T12:06:59;47611.03;;;-143.26;87.29
77106;BME280;66057;54.718;18.426;2024-01-07T12:09:25;47585.69;;;-143.26;87.79
77106;BME280;66057;54.718;18.426;2024-01-07T12:11:51;47620.78;;;-143.26;86.98
77106;BME280;66057;54.718;18.426;2024-01-07T12:14:18;47591.53;;;-143.26;87.73
77106;BME280;66057;54.718;18.426;2024-01-07T12:16:45;47587.63;;;-143.26;87.22
77106;BME280;66057;54.718;18.426;2024-01-07T12:19:12;47613.00;;;-143.26;86.92
77106;BME280;66057;54.718;18.426;2024-01-07T12:21:37;47632.50;;;-143.26;88.14
77106;BME280;66057;54.718;18.426;2024-01-07T12:24:04;47611.03;;;-143.26;87.86
77106;BME280;66057;54.718;18.426;2024-01-07T12:26:31;47614.94;;;-143.26;88.18
77106;BME280;66057;54.718;18.426;2024-01-07T12:29:03;47595.44;;;-143.26;87.73
77106;BME280;66057;54.718;18.426;2024-01-07T12:31:34;47655.91;;;-143.26;88.38
77106;BME280;66057;54.718;18.426;2024-01-07T12:34:02;47638.34;;;-143.26;88.99
77106;BME280;66057;54.718;18.426;2024-01-07T12:36:29;47603.25;;;-143.26;88.03
77106;BME280;66057;54.718;18.426;2024-01-07T12:38:56;47618.84;;;-143.26;88.15
77106;BME280;66057;54.718;18.426;2024-01-07T12:41:23;47628.59;;;-143.26;88.90
77106;BME280;66057;54.718;18.426;2024-01-07T12:43:49;47599.34;;;-143.26;88.53
77106;BME280;66057;54.718;18.426;2024-01-07T12:46:16;47614.94;;;-143.26;89.32
77106;BME280;66057;54.718;18.426;2024-01-07T12:48:42;47607.13;;;-143.26;88.68
77106;BME280;66057;54.718;18.426;2024-01-07T12:51:08;47626.66;;;-143.26;88.93